Cerkezmusellim, Turkey
Current Conditions -  °F | °C
As of 4:50 PM on Tuesday 21 Oct 2014 (Local Time) from LTBU Reporting Station
Clear Clear  
Wind Chill: 63°   Ceiling: Unl
Heat Index: 63°   Visibility: 6mi
Dew Point: 48°   Wind: 6mph
Humidity: 59%   Direction: 160°SSE
Pressure: 29.88"   Gusts: NA
Location:  41.28°N, 27.03°E
Report Text: LTBU 211450Z 16005KT CAVOK 17/09 Q1012
Loading
Personal Weather Stations






























Interactive Weather Map
Tropical Storm Tracking
New forecast layout! Learn more

10-Day Weather Forecast

Advertisements
Track Severe Weather on mobile